createdAt,value
2023-06-30T00:00:14.501Z,249.33
2023-06-30T00:01:13.938Z,249.41
2023-06-30T00:02:13.943Z,249.48
2023-06-30T00:03:14.007Z,249.99
2023-06-30T00:04:13.987Z,249.53
2023-06-30T00:05:13.890Z,250.09
2023-06-30T00:06:13.869Z,251.12
2023-06-30T00:07:13.886Z,253.27
2023-06-30T00:08:13.841Z,256.09
2023-06-30T00:09:13.831Z,249.88
2023-06-30T00:10:13.852Z,247.79
2023-06-30T00:11:13.841Z,249.72
2023-06-30T00:12:13.829Z,248.69
2023-06-30T00:13:13.835Z,248.20
2023-06-30T00:14:13.820Z,249.67
2023-06-30T00:15:13.824Z,249.79
2023-06-30T00:16:13.886Z,249.68
2023-06-30T00:17:13.807Z,249.50
2023-06-30T00:18:13.811Z,249.36
2023-06-30T00:19:13.818Z,248.64
2023-06-30T00:20:13.840Z,248.78
2023-06-30T00:21:13.875Z,249.45
2023-06-30T00:22:13.865Z,249.56
2023-06-30T00:23:13.863Z,249.84
2023-06-30T00:24:13.861Z,250.67
2023-06-30T00:25:15.394Z,252.12
2023-06-30T00:26:13.855Z,255.04
2023-06-30T00:27:13.842Z,249.39
2023-06-30T00:28:13.829Z,249.92
2023-06-30T00:29:13.838Z,248.55
2023-06-30T00:30:13.828Z,249.72
2023-06-30T00:31:13.834Z,248.29
2023-06-30T00:32:13.804Z,249.57
2023-06-30T00:33:13.802Z,249.41
2023-06-30T00:34:13.811Z,249.36
2023-06-30T00:35:13.868Z,250.00
2023-06-30T00:36:13.896Z,250.00
2023-06-30T00:37:13.950Z,248.37
2023-06-30T00:38:14.002Z,248.44
2023-06-30T00:39:14.026Z,249.76
2023-06-30T00:40:14.076Z,248.94
2023-06-30T00:41:14.108Z,248.94
2023-06-30T00:42:14.163Z,249.97
2023-06-30T00:43:14.203Z,248.43
2023-06-30T00:44:14.246Z,250.00
2023-06-30T00:45:14.304Z,249.25
2023-06-30T00:46:14.336Z,249.82
2023-06-30T00:47:14.439Z,250.00
2023-06-30T00:48:14.415Z,250.00
2023-06-30T00:49:14.462Z,249.99
2023-06-30T00:50:14.520Z,249.32
2023-06-30T00:51:14.564Z,248.84
2023-06-30T00:52:14.595Z,249.85
2023-06-30T00:53:14.658Z,249.89
2023-06-30T00:54:14.695Z,249.66
2023-06-30T00:55:14.765Z,249.62
2023-06-30T00:56:14.789Z,249.72
2023-06-30T00:57:14.834Z,249.13
2023-06-30T00:58:14.875Z,249.36
2023-06-30T00:59:14.947Z,249.05
2023-06-30T01:00:15.069Z,249.56
2023-06-30T01:01:15.069Z,250.00
2023-06-30T01:02:15.054Z,249.39
2023-06-30T01:03:15.245Z,249.14
2023-06-30T01:04:15.209Z,249.55
2023-06-30T01:05:15.202Z,248.76
2023-06-30T01:06:15.239Z,248.68
2023-06-30T01:07:15.378Z,248.60
2023-06-30T01:08:15.349Z,248.80
2023-06-30T01:09:15.380Z,249.21
2023-06-30T01:10:15.448Z,249.60
2023-06-30T01:11:15.486Z,249.36
2023-06-30T01:12:15.555Z,249.89
2023-06-30T01:13:15.587Z,249.71
2023-06-30T01:14:15.629Z,249.83
2023-06-30T01:15:15.696Z,248.22
2023-06-30T01:16:15.768Z,249.62
2023-06-30T01:17:15.768Z,249.55
2023-06-30T01:18:15.803Z,249.82
2023-06-30T01:19:15.863Z,249.79
2023-06-30T01:20:15.901Z,249.14
2023-06-30T01:21:15.942Z,249.75
2023-06-30T01:22:15.997Z,250.00
2023-06-30T01:23:16.036Z,247.68
2023-06-30T01:24:16.089Z,249.92
2023-06-30T01:25:16.139Z,249.53
2023-06-30T01:26:16.241Z,248.64
2023-06-30T01:27:16.264Z,249.93
2023-06-30T01:28:16.297Z,249.80
2023-06-30T01:29:16.413Z,249.58
2023-06-30T01:30:16.407Z,249.66
2023-06-30T01:31:16.548Z,249.28
2023-06-30T01:32:16.511Z,250.00
2023-06-30T01:33:16.584Z,249.95
2023-06-30T01:34:16.631Z,249.64
2023-06-30T01:35:16.688Z,250.00
2023-06-30T01:36:16.732Z,248.74
2023-06-30T01:37:16.738Z,248.82
2023-06-30T01:38:16.753Z,249.17
2023-06-30T01:39:16.735Z,249.67
2023-06-30T01:40:16.734Z,249.87
2023-06-30T01:41:16.736Z,250.77
2023-06-30T01:42:16.714Z,249.73
2023-06-30T01:43:16.703Z,249.69
2023-06-30T01:44:16.696Z,249.01
2023-06-30T01:45:16.718Z,249.49
2023-06-30T01:46:16.765Z,249.76
2023-06-30T01:47:16.707Z,250.00
2023-06-30T01:48:16.754Z,249.42
2023-06-30T01:49:16.813Z,249.44
2023-06-30T01:50:16.930Z,249.71
2023-06-30T01:51:16.936Z,248.78
2023-06-30T01:52:16.984Z,250.00
2023-06-30T01:53:17.046Z,249.74
2023-06-30T01:54:17.094Z,248.26
2023-06-30T01:55:17.160Z,249.99
2023-06-30T01:56:17.201Z,250.00
2023-06-30T01:57:17.269Z,248.88
2023-06-30T01:58:17.343Z,249.89
2023-06-30T01:59:17.371Z,249.71
2023-06-30T02:00:17.427Z,249.28
2023-06-30T02:01:17.518Z,249.08
2023-06-30T02:02:17.526Z,249.81
2023-06-30T02:03:17.674Z,248.97
2023-06-30T02:04:17.674Z,248.59
2023-06-30T02:05:17.712Z,248.85
2023-06-30T02:06:17.766Z,249.19
2023-06-30T02:07:17.881Z,249.31
2023-06-30T02:08:17.871Z,249.62
2023-06-30T02:09:17.955Z,249.39
2023-06-30T02:10:18.009Z,249.09
2023-06-30T02:11:18.065Z,249.06
2023-06-30T02:12:18.114Z,249.87
2023-06-30T02:13:18.202Z,249.39
2023-06-30T02:14:18.219Z,249.27
2023-06-30T02:15:18.291Z,249.41
2023-06-30T02:16:18.440Z,249.81
2023-06-30T02:17:18.412Z,248.77
2023-06-30T02:18:18.463Z,248.91
2023-06-30T02:19:18.529Z,249.13
2023-06-30T02:20:18.565Z,249.19
2023-06-30T02:21:18.514Z,249.28
2023-06-30T02:22:18.498Z,249.36
2023-06-30T02:23:18.507Z,249.45
2023-06-30T02:24:18.502Z,250.69
2023-06-30T02:25:18.509Z,249.22
2023-06-30T02:26:18.495Z,249.76
2023-06-30T02:27:18.504Z,249.39
2023-06-30T02:28:18.661Z,249.66
2023-06-30T02:29:18.490Z,249.14
2023-06-30T02:30:18.549Z,249.47
2023-06-30T02:31:18.729Z,249.38
2023-06-30T02:32:18.688Z,249.38
2023-06-30T02:33:18.718Z,249.72
2023-06-30T02:34:18.793Z,248.70
2023-06-30T02:35:18.910Z,249.30
2023-06-30T02:36:18.901Z,249.58
2023-06-30T02:37:18.976Z,249.54
2023-06-30T02:38:19.021Z,249.17
2023-06-30T02:39:19.084Z,249.28
2023-06-30T02:40:19.163Z,249.29
2023-06-30T02:41:19.222Z,248.89
2023-06-30T02:42:19.257Z,249.67
2023-06-30T02:43:19.321Z,250.00
2023-06-30T02:44:19.358Z,249.73
2023-06-30T02:45:19.368Z,249.78
2023-06-30T02:46:19.410Z,249.80
2023-06-30T02:47:19.386Z,249.70
2023-06-30T02:48:19.336Z,250.28
2023-06-30T02:49:19.326Z,250.44
2023-06-30T02:50:19.344Z,249.31
2023-06-30T02:51:19.330Z,249.72
2023-06-30T02:52:19.328Z,248.50
2023-06-30T02:53:19.327Z,249.34
2023-06-30T02:54:19.355Z,249.14
2023-06-30T02:55:19.419Z,250.00
2023-06-30T02:56:19.487Z,249.19
2023-06-30T02:57:19.538Z,249.19
2023-06-30T02:58:19.624Z,250.00
2023-06-30T02:59:19.592Z,250.03
2023-06-30T03:00:19.596Z,250.12
2023-06-30T03:01:19.691Z,250.42
2023-06-30T03:02:19.736Z,250.61
2023-06-30T03:03:19.690Z,251.49
2023-06-30T03:04:19.594Z,249.34
2023-06-30T03:05:19.603Z,249.25
2023-06-30T03:06:19.610Z,248.95
2023-06-30T03:07:19.637Z,249.42
2023-06-30T03:08:19.602Z,248.96
2023-06-30T03:09:19.665Z,249.20
2023-06-30T03:10:19.767Z,248.98
2023-06-30T03:11:19.803Z,248.78
2023-06-30T03:12:19.880Z,248.14
2023-06-30T03:13:19.872Z,248.23
2023-06-30T03:14:19.882Z,248.31
2023-06-30T03:15:19.885Z,248.41
2023-06-30T03:16:19.916Z,248.41
2023-06-30T03:17:19.904Z,249.16
2023-06-30T03:18:19.864Z,249.42
2023-06-30T03:19:19.859Z,249.10
2023-06-30T03:20:19.881Z,249.29
2023-06-30T03:21:19.872Z,249.57
2023-06-30T03:22:19.924Z,249.31
2023-06-30T03:23:20.038Z,249.66
2023-06-30T03:24:20.033Z,248.43
2023-06-30T03:25:20.089Z,248.97
2023-06-30T03:26:20.171Z,248.90
2023-06-30T03:27:20.227Z,249.62
2023-06-30T03:28:20.300Z,249.14
2023-06-30T03:29:20.387Z,248.62
2023-06-30T03:30:20.461Z,249.43
2023-06-30T03:31:20.590Z,249.24
2023-06-30T03:32:20.573Z,249.74
2023-06-30T03:33:20.617Z,249.18
2023-06-30T03:34:20.669Z,249.31
2023-06-30T03:35:20.758Z,248.54
2023-06-30T03:36:20.800Z,249.25
2023-06-30T03:38:39.625Z,25.00
2023-06-30T03:39:39.635Z,25.00
2023-06-30T03:40:39.672Z,25.00
2023-06-30T03:41:39.626Z,25.00
2023-06-30T03:42:39.611Z,25.00
2023-06-30T03:43:39.605Z,25.01
2023-06-30T03:44:39.654Z,26.41
2023-06-30T03:45:39.790Z,25.00
2023-06-30T03:46:39.663Z,25.00
2023-06-30T03:47:39.643Z,29.73
2023-06-30T03:48:39.587Z,26.31
2023-06-30T03:49:39.579Z,26.03
2023-06-30T03:50:39.570Z,29.28
2023-06-30T03:51:39.561Z,29.49
2023-06-30T03:52:39.535Z,27.71
2023-06-30T03:53:39.521Z,30.90
2023-06-30T03:54:39.500Z,28.77
2023-06-30T03:55:39.513Z,31.52
2023-06-30T03:56:39.484Z,29.49
2023-06-30T03:57:39.486Z,30.63
2023-06-30T03:58:39.476Z,30.79
2023-06-30T03:59:39.462Z,30.17
2023-06-30T04:00:39.450Z,31.50
2023-06-30T04:01:39.429Z,32.05
2023-06-30T04:02:39.506Z,30.74
2023-06-30T04:03:39.556Z,30.66
2023-06-30T04:04:39.592Z,32.29
2023-06-30T04:05:39.424Z,33.55
2023-06-30T04:06:39.410Z,33.72
2023-06-30T04:07:39.490Z,35.86
2023-06-30T04:08:39.394Z,33.01
2023-06-30T04:09:39.389Z,31.82
2023-06-30T04:10:39.393Z,32.10
2023-06-30T04:11:39.374Z,32.36
2023-06-30T04:12:39.362Z,33.85
2023-06-30T04:13:39.353Z,34.98
2023-06-30T04:14:39.342Z,37.04
2023-06-30T04:15:39.345Z,38.96
2023-06-30T04:16:39.400Z,37.20
2023-06-30T04:17:39.388Z,34.68
2023-06-30T04:18:39.378Z,34.79
2023-06-30T04:19:39.448Z,34.27
2023-06-30T04:20:39.518Z,37.24
2023-06-30T04:21:39.568Z,37.35
2023-06-30T04:22:39.642Z,34.79
2023-06-30T04:23:39.707Z,40.48
2023-06-30T04:24:39.764Z,38.13
2023-06-30T04:25:39.830Z,36.41
2023-06-30T04:26:39.863Z,37.62
2023-06-30T04:27:39.931Z,38.31
2023-06-30T04:28:39.971Z,40.06
2023-06-30T04:29:40.043Z,38.42
2023-06-30T04:30:40.126Z,38.21
2023-06-30T04:31:40.193Z,37.83
2023-06-30T04:32:40.293Z,37.51
2023-06-30T04:33:40.286Z,36.61
2023-06-30T04:34:40.332Z,37.49
2023-06-30T04:35:40.423Z,37.91
2023-06-30T04:36:40.408Z,38.41
2023-06-30T04:37:40.484Z,39.85
2023-06-30T04:38:40.554Z,37.06
2023-06-30T04:39:40.580Z,36.69
2023-06-30T04:40:40.646Z,35.64
2023-06-30T04:41:40.687Z,40.25
2023-06-30T04:42:40.731Z,38.30
2023-06-30T04:43:40.796Z,34.92
2023-06-30T04:44:40.851Z,36.92
2023-06-30T04:45:40.913Z,35.56
2023-06-30T04:46:41.092Z,34.47
2023-06-30T04:47:41.056Z,39.51
2023-06-30T04:48:41.081Z,38.03
2023-06-30T04:49:41.147Z,37.58
2023-06-30T04:50:41.205Z,36.84
2023-06-30T04:51:41.263Z,40.52
2023-06-30T04:52:41.316Z,39.00
2023-06-30T04:53:41.362Z,36.88
2023-06-30T04:54:41.429Z,37.24
2023-06-30T04:55:41.519Z,37.26
2023-06-30T04:56:41.588Z,36.36
2023-06-30T04:57:41.611Z,38.77
2023-06-30T04:58:41.671Z,37.54
2023-06-30T04:59:41.756Z,39.04
2023-06-30T05:00:41.798Z,39.23
2023-06-30T05:01:41.864Z,39.92
2023-06-30T05:02:41.944Z,39.76
2023-06-30T05:03:42.010Z,38.26
2023-06-30T05:04:42.059Z,39.75
2023-06-30T05:05:42.134Z,36.23
2023-06-30T05:06:42.190Z,38.47
2023-06-30T05:07:42.298Z,36.00
2023-06-30T05:08:42.306Z,36.88
2023-06-30T05:09:42.372Z,33.88
2023-06-30T05:10:42.445Z,33.57
2023-06-30T05:11:42.506Z,34.33
2023-06-30T05:12:42.547Z,36.26
2023-06-30T05:13:42.619Z,32.93
2023-06-30T05:14:42.699Z,35.44
2023-06-30T05:15:42.888Z,35.27
2023-06-30T05:16:42.875Z,34.03
2023-06-30T05:17:42.899Z,34.46
2023-06-30T05:18:42.951Z,34.99
2023-06-30T05:19:43.001Z,34.34
2023-06-30T05:20:43.066Z,33.81
2023-06-30T05:21:43.108Z,38.03
2023-06-30T05:22:43.190Z,35.87
2023-06-30T05:23:43.244Z,34.55
2023-06-30T05:24:43.301Z,35.81
2023-06-30T05:25:43.655Z,35.96
2023-06-30T05:26:43.412Z,35.56
2023-06-30T05:27:43.457Z,35.61
2023-06-30T05:28:50.021Z,36.39
2023-06-30T05:29:44.566Z,36.52
2023-06-30T05:30:43.537Z,36.61
2023-06-30T05:31:43.540Z,36.50
2023-06-30T05:32:43.530Z,36.35
2023-06-30T05:33:43.537Z,33.71
2023-06-30T05:34:43.500Z,35.10
2023-06-30T05:35:43.747Z,35.93
2023-06-30T05:36:43.525Z,37.02
2023-06-30T05:37:43.574Z,35.42
2023-06-30T05:38:43.613Z,36.83
2023-06-30T05:39:43.667Z,32.25
2023-06-30T05:40:43.748Z,35.95
2023-06-30T05:41:43.793Z,37.23
2023-06-30T05:42:43.837Z,44.60
2023-06-30T05:43:43.899Z,51.27
2023-06-30T05:44:44.018Z,55.05
2023-06-30T05:45:44.170Z,55.46
2023-06-30T05:46:43.992Z,55.95
2023-06-30T05:47:43.981Z,60.65
2023-06-30T05:48:43.922Z,73.62
2023-06-30T05:49:43.967Z,98.33
2023-06-30T05:50:43.965Z,133.15
2023-06-30T05:51:43.933Z,148.46
2023-06-30T05:52:43.944Z,154.10
2023-06-30T05:53:43.931Z,163.30
2023-06-30T05:54:43.961Z,169.87
2023-06-30T05:55:44.116Z,173.86
2023-06-30T05:56:43.918Z,190.34
2023-06-30T05:57:43.923Z,195.50
2023-06-30T05:58:43.917Z,204.70
2023-06-30T05:59:43.926Z,217.20
2023-06-30T06:00:43.948Z,217.70
2023-06-30T06:01:43.907Z,218.20
2023-06-30T06:02:43.980Z,222.93
2023-06-30T06:03:44.198Z,232.29
2023-06-30T06:04:44.191Z,249.52
2023-06-30T06:05:44.438Z,273.99
2023-06-30T06:06:43.896Z,246.72
2023-06-30T06:07:44.115Z,250.00
2023-06-30T06:08:43.873Z,250.00
2023-06-30T06:09:43.857Z,243.78
2023-06-30T06:10:43.864Z,248.23
2023-06-30T06:11:43.864Z,248.44
2023-06-30T06:12:43.847Z,249.71
2023-06-30T06:13:43.831Z,248.98
2023-06-30T06:14:43.834Z,252.40
2023-06-30T06:15:44.151Z,258.50
2023-06-30T06:16:43.894Z,250.96
2023-06-30T06:17:43.854Z,248.80
2023-06-30T06:18:43.779Z,247.89
2023-06-30T06:19:43.769Z,250.23
2023-06-30T06:20:44.862Z,250.14
2023-06-30T06:21:43.769Z,250.00
2023-06-30T06:22:43.771Z,250.00
2023-06-30T06:23:43.776Z,249.17
2023-06-30T06:24:43.783Z,249.68
2023-06-30T06:25:45.440Z,249.68
2023-06-30T06:26:43.746Z,249.00
2023-06-30T06:27:43.758Z,250.00
2023-06-30T06:28:43.750Z,248.27
2023-06-30T06:29:43.717Z,250.00
2023-06-30T06:30:43.769Z,249.75
2023-06-30T06:31:43.700Z,250.00
2023-06-30T06:32:43.741Z,249.62
2023-06-30T06:33:43.708Z,247.83
2023-06-30T06:34:43.677Z,249.21
2023-06-30T06:35:44.001Z,250.00
2023-06-30T06:36:43.676Z,249.51
2023-06-30T06:37:43.659Z,250.03
2023-06-30T06:38:43.631Z,250.19
2023-06-30T06:39:43.627Z,251.23
2023-06-30T06:40:43.640Z,253.31
2023-06-30T06:41:43.631Z,258.12
2023-06-30T06:42:43.613Z,260.03
2023-06-30T06:43:43.606Z,248.32
2023-06-30T06:44:43.621Z,245.64
2023-06-30T06:45:44.002Z,245.24
2023-06-30T06:46:43.663Z,246.44
2023-06-30T06:47:43.607Z,242.78
2023-06-30T06:48:43.541Z,238.83
2023-06-30T06:49:46.106Z,232.02
2023-06-30T06:50:43.518Z,226.39
2023-06-30T06:51:43.624Z,225.40
2023-06-30T06:52:43.486Z,219.17
2023-06-30T06:53:43.530Z,213.51
2023-06-30T06:54:43.569Z,209.72
2023-06-30T06:55:43.655Z,200.76
2023-06-30T06:56:43.441Z,193.81
2023-06-30T06:57:43.427Z,186.67
2023-06-30T06:58:43.411Z,178.92
2023-06-30T06:59:43.408Z,172.11
2023-06-30T07:00:43.401Z,168.81
2023-06-30T07:01:43.460Z,159.94
2023-06-30T07:02:43.401Z,153.42
2023-06-30T07:03:43.372Z,147.11
2023-06-30T07:04:43.334Z,144.87
2023-06-30T07:05:43.582Z,139.20
2023-06-30T07:06:43.335Z,135.61
2023-06-30T07:07:43.402Z,130.88
2023-06-30T07:08:43.337Z,125.62
2023-06-30T07:09:43.308Z,122.25
2023-06-30T07:10:43.311Z,120.01
2023-06-30T07:11:43.900Z,114.82
2023-06-30T07:12:43.289Z,111.11
2023-06-30T07:13:43.286Z,106.70
2023-06-30T07:14:45.847Z,102.80
2023-06-30T07:15:43.549Z,100.57
2023-06-30T07:16:43.341Z,96.51
2023-06-30T07:17:43.303Z,92.98
2023-06-30T07:18:43.296Z,88.93
2023-06-30T07:19:43.261Z,86.44
2023-06-30T07:20:43.237Z,85.00
2023-06-30T07:21:43.295Z,81.27
2023-06-30T07:22:43.247Z,79.62
2023-06-30T07:23:43.931Z,75.07
2023-06-30T07:24:44.233Z,75.13
2023-06-30T07:25:43.690Z,72.89
2023-06-30T07:26:43.520Z,69.83
2023-06-30T07:27:43.587Z,66.58
2023-06-30T07:28:43.617Z,62.11
2023-06-30T07:29:43.649Z,61.73
2023-06-30T07:30:43.790Z,61.27
2023-06-30T07:31:43.786Z,59.32
2023-06-30T07:32:43.857Z,64.28
2023-06-30T07:33:43.882Z,64.70
2023-06-30T07:34:43.970Z,65.75
2023-06-30T07:35:44.644Z,68.38
2023-06-30T07:36:44.212Z,75.55
2023-06-30T07:37:44.073Z,83.23
2023-06-30T07:38:44.142Z,88.15
2023-06-30T07:39:44.191Z,93.23
2023-06-30T07:40:55.281Z,105.92
2023-06-30T07:41:45.267Z,106.51
2023-06-30T07:42:44.238Z,109.32
2023-06-30T07:43:44.214Z,114.69
2023-06-30T07:44:44.216Z,122.49
2023-06-30T07:45:44.660Z,132.04
2023-06-30T07:46:44.196Z,132.29
2023-06-30T07:47:44.289Z,128.50
2023-06-30T07:48:44.281Z,127.46
2023-06-30T07:49:44.235Z,113.55
2023-06-30T07:50:54.745Z,108.10
2023-06-30T07:51:45.213Z,108.03
2023-06-30T07:52:44.310Z,103.54
2023-06-30T07:53:44.177Z,105.19
2023-06-30T07:54:44.207Z,98.49
2023-06-30T07:55:44.513Z,87.26
2023-06-30T07:56:44.171Z,80.09
2023-06-30T07:57:44.265Z,75.91
2023-06-30T07:58:44.205Z,72.01
2023-06-30T07:59:44.186Z,67.96
2023-06-30T08:00:44.197Z,70.13
2023-06-30T08:01:44.202Z,71.73
2023-06-30T08:02:44.262Z,72.29
2023-06-30T08:03:44.392Z,74.58
2023-06-30T08:04:44.462Z,78.10
2023-06-30T08:05:44.739Z,77.79
2023-06-30T08:06:44.211Z,83.35
2023-06-30T08:07:50.307Z,87.19
2023-06-30T08:08:45.232Z,87.42
2023-06-30T08:09:44.264Z,88.55
2023-06-30T08:10:45.007Z,90.40
2023-06-30T08:11:44.210Z,95.60
2023-06-30T08:12:44.227Z,101.75
2023-06-30T08:13:44.207Z,104.68
2023-06-30T08:14:44.206Z,107.04
2023-06-30T08:15:46.665Z,107.19
2023-06-30T08:16:44.238Z,107.27
2023-06-30T08:17:53.195Z,108.02
2023-06-30T08:18:51.168Z,107.38
2023-06-30T08:19:48.428Z,107.49
2023-06-30T08:20:44.303Z,107.55
2023-06-30T08:21:44.231Z,108.95
2023-06-30T08:22:46.344Z,110.81
2023-06-30T08:23:44.180Z,107.40
2023-06-30T08:24:44.172Z,107.49
2023-06-30T08:25:44.628Z,108.33
2023-06-30T08:26:44.145Z,108.49
2023-06-30T08:27:44.153Z,108.17
2023-06-30T08:28:44.125Z,108.17
2023-06-30T08:29:44.192Z,106.35
2023-06-30T08:30:44.164Z,106.22
2023-06-30T08:31:44.118Z,107.31
2023-06-30T08:32:44.170Z,106.15
2023-06-30T08:33:44.150Z,105.17
2023-06-30T08:34:44.104Z,103.01
2023-06-30T08:35:44.304Z,97.74
2023-06-30T08:36:44.127Z,92.58
2023-06-30T08:37:44.108Z,87.94
2023-06-30T08:38:44.179Z,83.98
2023-06-30T08:39:44.114Z,80.22
2023-06-30T08:40:44.116Z,73.50
2023-06-30T08:41:44.144Z,69.59
2023-06-30T08:42:44.200Z,66.71
2023-06-30T08:43:44.141Z,63.94
2023-06-30T08:44:44.142Z,57.76
2023-06-30T08:45:44.502Z,52.92
2023-06-30T08:46:44.186Z,49.35
2023-06-30T08:47:44.167Z,44.75
2023-06-30T08:48:44.144Z,40.35
2023-06-30T08:49:44.147Z,37.00
2023-06-30T08:50:44.148Z,34.80
2023-06-30T08:51:44.147Z,30.19
2023-06-30T08:52:44.151Z,26.82
2023-06-30T08:53:44.224Z,27.18
2023-06-30T08:54:44.172Z,25.58
2023-06-30T08:55:44.393Z,25.25
2023-06-30T08:56:44.157Z,26.42
2023-06-30T08:57:44.203Z,25.59
2023-06-30T08:58:44.246Z,25.92
2023-06-30T08:59:44.263Z,25.61
2023-06-30T09:00:44.349Z,25.00
2023-06-30T09:01:47.010Z,25.06
2023-06-30T09:02:44.543Z,25.00
2023-06-30T09:03:44.435Z,25.00
2023-06-30T09:04:44.425Z,25.13
2023-06-30T09:05:44.518Z,25.84
2023-06-30T09:06:44.382Z,25.45
2023-06-30T09:07:44.540Z,26.74
2023-06-30T09:08:44.380Z,25.99
2023-06-30T09:09:44.381Z,28.32
2023-06-30T09:10:44.417Z,28.09
2023-06-30T09:11:44.392Z,26.49
2023-06-30T09:12:44.394Z,28.18
2023-06-30T09:13:44.406Z,27.40
2023-06-30T09:14:44.403Z,25.18
2023-06-30T09:15:44.785Z,27.45
2023-06-30T09:16:44.454Z,25.93
2023-06-30T09:17:44.482Z,26.49
2023-06-30T09:18:44.431Z,26.53
2023-06-30T09:19:44.432Z,25.84
2023-06-30T09:20:44.458Z,25.42
2023-06-30T09:21:44.452Z,23.02
2023-06-30T09:22:55.100Z,21.97
2023-06-30T09:23:45.587Z,25.51
2023-06-30T09:24:44.454Z,21.98
2023-06-30T09:25:44.940Z,22.00
2023-06-30T09:26:44.472Z,17.99
2023-06-30T09:27:44.511Z,17.54
2023-06-30T09:28:44.479Z,26.30
2023-06-30T09:29:44.510Z,26.88
2023-06-30T09:30:44.516Z,28.60
2023-06-30T09:31:44.609Z,29.33
2023-06-30T09:32:44.652Z,29.45
2023-06-30T09:33:44.706Z,29.18
2023-06-30T09:34:44.774Z,32.52
2023-06-30T09:35:45.211Z,31.69
2023-06-30T09:36:44.905Z,31.63
2023-06-30T09:37:44.947Z,31.48
2023-06-30T09:38:44.975Z,32.07
2023-06-30T09:39:45.017Z,32.30
2023-06-30T09:40:45.053Z,33.05
2023-06-30T09:41:45.089Z,33.54
2023-06-30T09:42:46.123Z,34.96
2023-06-30T09:43:45.289Z,36.08
2023-06-30T09:44:45.327Z,38.16
2023-06-30T09:45:45.626Z,40.57
2023-06-30T09:46:45.505Z,44.83
2023-06-30T09:47:45.407Z,44.53
2023-06-30T09:48:45.423Z,50.69
2023-06-30T09:49:45.513Z,57.45
2023-06-30T09:50:45.442Z,62.28
2023-06-30T09:51:45.418Z,62.39
2023-06-30T09:52:45.420Z,62.81
2023-06-30T09:53:45.421Z,64.79
2023-06-30T09:54:45.431Z,71.93
2023-06-30T09:55:45.625Z,62.80
2023-06-30T09:56:45.449Z,64.56
2023-06-30T09:57:45.450Z,67.68
2023-06-30T09:58:45.461Z,73.55
2023-06-30T09:59:45.469Z,88.62
2023-06-30T10:00:45.470Z,101.30
2023-06-30T10:01:45.550Z,101.61
2023-06-30T10:02:45.676Z,103.19
2023-06-30T10:03:45.545Z,106.50
2023-06-30T10:04:45.494Z,110.54
2023-06-30T10:05:45.840Z,112.44
2023-06-30T10:06:45.441Z,113.36
2023-06-30T10:07:45.456Z,113.37
2023-06-30T10:08:45.443Z,112.37
2023-06-30T10:09:45.452Z,111.71
2023-06-30T10:10:45.501Z,111.90
2023-06-30T10:11:45.443Z,113.90
2023-06-30T10:12:45.471Z,113.16
2023-06-30T10:13:45.449Z,111.87
2023-06-30T10:14:45.449Z,116.60
2023-06-30T10:15:45.806Z,117.60
2023-06-30T10:16:45.448Z,122.34
2023-06-30T10:17:45.595Z,124.18
2023-06-30T10:18:45.469Z,130.02
2023-06-30T10:19:45.467Z,128.54
2023-06-30T10:20:49.489Z,129.75
2023-06-30T10:21:45.488Z,129.76
2023-06-30T10:22:45.494Z,127.39
2023-06-30T10:23:45.498Z,126.33
2023-06-30T10:24:45.497Z,126.12
2023-06-30T10:25:45.802Z,125.71
2023-06-30T10:26:45.550Z,130.09
2023-06-30T10:27:45.474Z,131.34
2023-06-30T10:28:45.513Z,137.36
2023-06-30T10:29:45.484Z,148.58
2023-06-30T10:30:45.476Z,144.14
2023-06-30T10:31:45.618Z,141.45
2023-06-30T10:32:45.513Z,138.14
2023-06-30T10:33:45.554Z,135.24
2023-06-30T10:34:45.520Z,138.52
2023-06-30T10:35:45.709Z,142.21
2023-06-30T10:36:45.523Z,152.06
2023-06-30T10:37:45.523Z,163.98
2023-06-30T10:38:45.516Z,171.50
2023-06-30T10:39:45.491Z,175.42
2023-06-30T10:40:45.499Z,178.42
2023-06-30T10:41:45.498Z,178.60
2023-06-30T10:42:45.525Z,179.10
2023-06-30T10:43:45.516Z,179.68
2023-06-30T10:44:45.504Z,180.38
2023-06-30T10:45:45.743Z,183.47
2023-06-30T10:46:45.481Z,184.29
2023-06-30T10:47:45.482Z,184.78
2023-06-30T10:48:45.474Z,184.89
2023-06-30T10:49:45.445Z,183.60
2023-06-30T10:50:45.576Z,184.22
2023-06-30T10:51:45.441Z,184.16
2023-06-30T10:52:45.444Z,182.57
2023-06-30T10:53:45.480Z,183.63
2023-06-30T10:54:45.544Z,183.45
2023-06-30T10:55:46.461Z,184.10
2023-06-30T10:56:45.623Z,183.38
2023-06-30T10:57:45.631Z,185.05
2023-06-30T10:58:45.691Z,183.62
2023-06-30T10:59:45.735Z,182.97
2023-06-30T11:00:45.826Z,183.35
2023-06-30T11:01:45.866Z,184.19
2023-06-30T11:02:45.995Z,183.87
2023-06-30T11:03:46.117Z,183.45
2023-06-30T11:04:46.153Z,183.97
2023-06-30T11:05:46.311Z,184.24
2023-06-30T11:06:46.145Z,184.52
2023-06-30T11:07:46.189Z,183.32
2023-06-30T11:08:46.253Z,183.05
2023-06-30T11:09:46.323Z,183.10
2023-06-30T11:10:46.384Z,182.99
2023-06-30T11:11:46.432Z,183.39
2023-06-30T11:12:46.432Z,183.49
2023-06-30T11:13:46.433Z,183.50
2023-06-30T11:14:46.436Z,182.58
2023-06-30T11:15:47.337Z,183.03
2023-06-30T11:16:46.408Z,183.92
2023-06-30T11:17:46.508Z,182.78
2023-06-30T11:18:46.491Z,183.23
2023-06-30T11:19:46.504Z,182.83
2023-06-30T11:20:46.415Z,182.38
2023-06-30T11:21:46.477Z,182.30
2023-06-30T11:22:46.557Z,180.98
2023-06-30T11:23:46.605Z,182.28
2023-06-30T11:24:46.635Z,181.75
2023-06-30T11:25:46.723Z,182.59
2023-06-30T11:26:46.761Z,181.00
2023-06-30T11:27:46.841Z,181.06
2023-06-30T11:28:46.854Z,181.11
2023-06-30T11:29:46.855Z,181.46
2023-06-30T11:30:46.883Z,181.67
2023-06-30T11:31:46.807Z,182.42
2023-06-30T11:32:46.883Z,180.60
2023-06-30T11:33:46.819Z,181.21
2023-06-30T11:34:46.820Z,181.32
2023-06-30T11:35:46.967Z,181.50
2023-06-30T11:36:46.789Z,181.35
2023-06-30T11:37:46.774Z,181.37
2023-06-30T11:38:47.159Z,181.41
2023-06-30T11:39:46.791Z,181.47
2023-06-30T11:40:46.757Z,181.75
2023-06-30T11:41:46.749Z,181.35
2023-06-30T11:42:46.831Z,179.47
2023-06-30T11:43:46.724Z,180.70
2023-06-30T11:44:46.727Z,181.67
2023-06-30T11:45:46.887Z,180.18
2023-06-30T11:46:46.812Z,180.16
2023-06-30T11:47:46.868Z,180.99
2023-06-30T11:48:46.886Z,180.07
2023-06-30T11:49:46.938Z,179.88
2023-06-30T11:50:47.218Z,179.95
2023-06-30T11:51:47.051Z,180.02
2023-06-30T11:52:47.122Z,178.53
2023-06-30T11:53:47.182Z,177.75
2023-06-30T11:54:47.228Z,179.08
2023-06-30T11:55:47.549Z,179.11
2023-06-30T11:56:47.336Z,181.63
2023-06-30T11:57:47.402Z,180.58
2023-06-30T11:58:47.454Z,179.16
2023-06-30T11:59:47.508Z,178.69
2023-06-30T12:00:47.783Z,181.11
2023-06-30T12:01:47.609Z,181.53
2023-06-30T12:02:49.617Z,183.32
2023-06-30T12:03:47.760Z,183.74
2023-06-30T12:04:47.753Z,184.62
2023-06-30T12:05:47.841Z,185.24
2023-06-30T12:06:47.652Z,186.02
2023-06-30T12:07:47.652Z,188.01
2023-06-30T12:08:47.640Z,187.20
2023-06-30T12:09:47.714Z,184.96
2023-06-30T12:10:47.669Z,184.57
2023-06-30T12:11:47.795Z,184.40
2023-06-30T12:12:47.612Z,181.58
2023-06-30T12:13:47.617Z,181.47
2023-06-30T12:14:47.591Z,181.04
2023-06-30T12:15:47.714Z,177.42
2023-06-30T12:16:47.709Z,174.73
2023-06-30T12:17:47.623Z,173.50
2023-06-30T12:18:47.563Z,172.68
2023-06-30T12:19:47.558Z,170.10
2023-06-30T12:20:47.567Z,167.44
2023-06-30T12:21:47.538Z,166.40
2023-06-30T12:22:47.543Z,164.97
2023-06-30T12:23:47.550Z,163.30
2023-06-30T12:24:47.544Z,160.59
2023-06-30T12:25:47.597Z,159.31
2023-06-30T12:26:47.535Z,158.73
2023-06-30T12:27:47.516Z,155.91
2023-06-30T12:28:47.551Z,154.89
2023-06-30T12:29:47.638Z,153.97
2023-06-30T12:30:47.882Z,150.72
2023-06-30T12:31:47.730Z,149.11
2023-06-30T12:32:47.787Z,147.13
2023-06-30T12:33:47.896Z,144.12
2023-06-30T12:34:47.890Z,140.89
2023-06-30T12:35:47.968Z,139.76
2023-06-30T12:36:48.001Z,136.88
2023-06-30T12:37:48.038Z,134.67